sensor_id;sensor_type;location;lat;lon;timestamp;P1;durP1;ratioP1;P2;durP2;ratioP2
20727;SDS011;10525;50.154;8.198;2022-11-20T00:00:37;34.43;;;13.33;;
20727;SDS011;10525;50.154;8.198;2022-11-20T00:03:04;34.60;;;13.80;;
20727;SDS011;10525;50.154;8.198;2022-11-20T00:05:31;33.07;;;13.63;;
20727;SDS011;10525;50.154;8.198;2022-11-20T00:07:58;32.40;;;13.73;;
20727;SDS011;10525;50.154;8.198;2022-11-20T00:10:25;28.13;;;11.57;;
20727;SDS011;10525;50.154;8.198;2022-11-20T00:12:52;29.00;;;12.77;;
20727;SDS011;10525;50.154;8.198;2022-11-20T00:15:18;28.03;;;12.00;;
20727;SDS011;10525;50.154;8.198;2022-11-20T00:17:46;32.37;;;12.87;;
20727;SDS011;10525;50.154;8.198;2022-11-20T00:20:13;31.23;;;12.37;;
20727;SDS011;10525;50.154;8.198;2022-11-20T00:22:40;28.13;;;11.87;;
20727;SDS011;10525;50.154;8.198;2022-11-20T00:25:07;27.23;;;11.80;;
20727;SDS011;10525;50.154;8.198;2022-11-20T00:27:34;30.83;;;11.63;;
20727;SDS011;10525;50.154;8.198;2022-11-20T00:30:01;28.30;;;11.00;;
20727;SDS011;10525;50.154;8.198;2022-11-20T00:32:29;23.70;;;10.60;;
20727;SDS011;10525;50.154;8.198;2022-11-20T00:34:57;23.97;;;11.03;;
20727;SDS011;10525;50.154;8.198;2022-11-20T00:37:24;30.33;;;11.50;;
20727;SDS011;10525;50.154;8.198;2022-11-20T00:39:51;27.47;;;11.27;;
20727;SDS011;10525;50.154;8.198;2022-11-20T00:42:18;28.40;;;11.07;;
20727;SDS011;10525;50.154;8.198;2022-11-20T00:44:45;33.63;;;12.90;;
20727;SDS011;10525;50.154;8.198;2022-11-20T00:47:11;28.93;;;12.53;;
20727;SDS011;10525;50.154;8.198;2022-11-20T00:49:38;25.03;;;12.00;;
20727;SDS011;10525;50.154;8.198;2022-11-20T00:52:06;24.23;;;11.50;;
20727;SDS011;10525;50.154;8.198;2022-11-20T00:54:33;26.37;;;11.83;;
20727;SDS011;10525;50.154;8.198;2022-11-20T00:57:00;26.33;;;11.70;;
20727;SDS011;10525;50.154;8.198;2022-11-20T00:59:26;24.37;;;11.07;;
20727;SDS011;10525;50.154;8.198;2022-11-20T01:01:53;29.20;;;12.00;;
20727;SDS011;10525;50.154;8.198;2022-11-20T01:04:20;32.33;;;13.70;;
20727;SDS011;10525;50.154;8.198;2022-11-20T01:06:46;22.23;;;10.27;;
20727;SDS011;10525;50.154;8.198;2022-11-20T01:09:14;33.07;;;15.40;;
20727;SDS011;10525;50.154;8.198;2022-11-20T01:11:42;33.13;;;13.53;;
20727;SDS011;10525;50.154;8.198;2022-11-20T01:14:10;26.90;;;10.47;;
20727;SDS011;10525;50.154;8.198;2022-11-20T01:16:39;28.57;;;11.23;;
20727;SDS011;10525;50.154;8.198;2022-11-20T01:19:09;24.23;;;10.97;;
20727;SDS011;10525;50.154;8.198;2022-11-20T01:21:39;23.53;;;11.00;;
20727;SDS011;10525;50.154;8.198;2022-11-20T01:24:07;21.97;;;10.37;;
20727;SDS011;10525;50.154;8.198;2022-11-20T01:26:39;25.30;;;9.87;;
20727;SDS011;10525;50.154;8.198;2022-11-20T01:29:08;24.37;;;11.03;;
20727;SDS011;10525;50.154;8.198;2022-11-20T01:31:38;29.47;;;12.00;;
20727;SDS011;10525;50.154;8.198;2022-11-20T01:34:06;21.97;;;10.47;;
20727;SDS011;10525;50.154;8.198;2022-11-20T01:36:36;23.87;;;10.73;;
20727;SDS011;10525;50.154;8.198;2022-11-20T01:39:04;29.33;;;11.47;;
20727;SDS011;10525;50.154;8.198;2022-11-20T01:41:33;28.67;;;12.47;;
20727;SDS011;10525;50.154;8.198;2022-11-20T01:44:20;23.47;;;10.70;;
20727;SDS011;10525;50.154;8.198;2022-11-20T01:46:51;22.40;;;10.37;;
20727;SDS011;10525;50.154;8.198;2022-11-20T01:49:24;21.33;;;10.57;;
20727;SDS011;10525;50.154;8.198;2022-11-20T01:51:55;23.33;;;10.17;;
20727;SDS011;10525;50.154;8.198;2022-11-20T01:54:25;27.67;;;10.97;;
20727;SDS011;10525;50.154;8.198;2022-11-20T01:56:57;26.70;;;10.80;;
20727;SDS011;10525;50.154;8.198;2022-11-20T01:59:27;25.90;;;10.77;;
20727;SDS011;10525;50.154;8.198;2022-11-20T02:01:55;24.07;;;11.07;;
20727;SDS011;10525;50.154;8.198;2022-11-20T02:04:22;23.33;;;10.97;;
20727;SDS011;10525;50.154;8.198;2022-11-20T02:06:50;26.90;;;11.23;;
20727;SDS011;10525;50.154;8.198;2022-11-20T02:09:23;25.43;;;10.63;;
20727;SDS011;10525;50.154;8.198;2022-11-20T02:11:49;21.00;;;9.50;;
20727;SDS011;10525;50.154;8.198;2022-11-20T02:14:17;22.00;;;10.20;;
20727;SDS011;10525;50.154;8.198;2022-11-20T02:16:45;24.90;;;10.33;;
20727;SDS011;10525;50.154;8.198;2022-11-20T02:19:16;23.40;;;9.97;;
20727;SDS011;10525;50.154;8.198;2022-11-20T02:21:49;24.43;;;10.60;;
20727;SDS011;10525;50.154;8.198;2022-11-20T02:24:22;23.07;;;10.00;;
20727;SDS011;10525;50.154;8.198;2022-11-20T02:26:50;26.17;;;10.53;;
20727;SDS011;10525;50.154;8.198;2022-11-20T02:29:20;24.57;;;10.27;;
20727;SDS011;10525;50.154;8.198;2022-11-20T02:31:51;20.23;;;9.40;;
20727;SDS011;10525;50.154;8.198;2022-11-20T02:34:21;24.00;;;11.07;;
20727;SDS011;10525;50.154;8.198;2022-11-20T02:36:48;26.10;;;10.90;;
20727;SDS011;10525;50.154;8.198;2022-11-20T02:39:18;25.73;;;10.90;;
20727;SDS011;10525;50.154;8.198;2022-11-20T02:41:48;18.40;;;8.87;;
20727;SDS011;10525;50.154;8.198;2022-11-20T02:44:14;19.60;;;8.83;;
20727;SDS011;10525;50.154;8.198;2022-11-20T02:46:41;18.33;;;8.67;;
20727;SDS011;10525;50.154;8.198;2022-11-20T02:49:08;18.07;;;9.23;;
20727;SDS011;10525;50.154;8.198;2022-11-20T02:51:34;20.23;;;9.37;;
20727;SDS011;10525;50.154;8.198;2022-11-20T02:54:01;19.27;;;8.90;;
20727;SDS011;10525;50.154;8.198;2022-11-20T02:56:28;20.60;;;9.90;;
20727;SDS011;10525;50.154;8.198;2022-11-20T02:58:56;20.50;;;8.93;;
20727;SDS011;10525;50.154;8.198;2022-11-20T03:01:23;19.60;;;9.50;;
20727;SDS011;10525;50.154;8.198;2022-11-20T03:03:50;15.87;;;8.27;;
20727;SDS011;10525;50.154;8.198;2022-11-20T03:06:19;18.17;;;8.87;;
20727;SDS011;10525;50.154;8.198;2022-11-20T03:08:46;18.20;;;8.83;;
20727;SDS011;10525;50.154;8.198;2022-11-20T03:11:12;19.37;;;9.07;;
20727;SDS011;10525;50.154;8.198;2022-11-20T03:13:39;16.80;;;8.73;;
20727;SDS011;10525;50.154;8.198;2022-11-20T03:16:08;20.43;;;9.23;;
20727;SDS011;10525;50.154;8.198;2022-11-20T03:18:36;20.93;;;9.53;;
20727;SDS011;10525;50.154;8.198;2022-11-20T03:21:04;21.60;;;10.70;;
20727;SDS011;10525;50.154;8.198;2022-11-20T03:23:31;21.70;;;9.77;;
20727;SDS011;10525;50.154;8.198;2022-11-20T03:26:11;24.30;;;10.30;;
20727;SDS011;10525;50.154;8.198;2022-11-20T03:28:40;21.50;;;9.50;;
20727;SDS011;10525;50.154;8.198;2022-11-20T03:31:09;22.83;;;10.03;;
20727;SDS011;10525;50.154;8.198;2022-11-20T03:33:37;24.37;;;10.23;;
20727;SDS011;10525;50.154;8.198;2022-11-20T03:36:05;20.90;;;10.00;;
20727;SDS011;10525;50.154;8.198;2022-11-20T03:38:33;21.47;;;9.07;;
20727;SDS011;10525;50.154;8.198;2022-11-20T03:41:00;22.30;;;10.13;;
20727;SDS011;10525;50.154;8.198;2022-11-20T03:43:28;21.70;;;10.10;;
20727;SDS011;10525;50.154;8.198;2022-11-20T03:45:55;21.53;;;9.50;;
20727;SDS011;10525;50.154;8.198;2022-11-20T03:48:23;23.13;;;10.13;;
20727;SDS011;10525;50.154;8.198;2022-11-20T03:50:50;22.47;;;9.47;;
20727;SDS011;10525;50.154;8.198;2022-11-20T03:53:18;20.47;;;10.03;;
20727;SDS011;10525;50.154;8.198;2022-11-20T03:55:45;20.80;;;9.90;;
20727;SDS011;10525;50.154;8.198;2022-11-20T03:58:16;23.43;;;9.83;;
20727;SDS011;10525;50.154;8.198;2022-11-20T04:00:43;23.80;;;10.40;;
20727;SDS011;10525;50.154;8.198;2022-11-20T04:03:09;24.93;;;9.33;;
20727;SDS011;10525;50.154;8.198;2022-11-20T04:05:37;21.13;;;9.77;;
20727;SDS011;10525;50.154;8.198;2022-11-20T04:08:04;23.23;;;10.20;;
20727;SDS011;10525;50.154;8.198;2022-11-20T04:10:31;20.23;;;8.60;;
20727;SDS011;10525;50.154;8.198;2022-11-20T04:12:58;20.50;;;8.33;;
20727;SDS011;10525;50.154;8.198;2022-11-20T04:15:24;16.33;;;7.93;;
20727;SDS011;10525;50.154;8.198;2022-11-20T04:17:51;16.03;;;8.13;;
20727;SDS011;10525;50.154;8.198;2022-11-20T04:20:19;17.53;;;8.43;;
20727;SDS011;10525;50.154;8.198;2022-11-20T04:22:47;23.37;;;8.50;;
20727;SDS011;10525;50.154;8.198;2022-11-20T04:25:14;20.87;;;8.57;;
20727;SDS011;10525;50.154;8.198;2022-11-20T04:27:41;18.67;;;7.83;;
20727;SDS011;10525;50.154;8.198;2022-11-20T04:30:08;14.67;;;7.50;;
20727;SDS011;10525;50.154;8.198;2022-11-20T04:32:35;19.90;;;8.17;;
20727;SDS011;10525;50.154;8.198;2022-11-20T04:35:02;23.77;;;7.90;;
20727;SDS011;10525;50.154;8.198;2022-11-20T04:37:29;20.97;;;8.40;;
20727;SDS011;10525;50.154;8.198;2022-11-20T04:39:57;18.33;;;8.33;;
20727;SDS011;10525;50.154;8.198;2022-11-20T04:42:23;21.07;;;8.57;;
20727;SDS011;10525;50.154;8.198;2022-11-20T04:44:56;18.43;;;8.20;;
20727;SDS011;10525;50.154;8.198;2022-11-20T04:47:23;22.93;;;8.77;;
20727;SDS011;10525;50.154;8.198;2022-11-20T04:49:50;24.97;;;9.93;;
20727;SDS011;10525;50.154;8.198;2022-11-20T04:52:17;20.90;;;8.03;;
20727;SDS011;10525;50.154;8.198;2022-11-20T04:54:44;27.03;;;9.00;;
20727;SDS011;10525;50.154;8.198;2022-11-20T04:57:13;21.40;;;8.77;;
20727;SDS011;10525;50.154;8.198;2022-11-20T04:59:40;23.00;;;8.63;;
20727;SDS011;10525;50.154;8.198;2022-11-20T05:02:07;20.30;;;8.60;;
20727;SDS011;10525;50.154;8.198;2022-11-20T05:04:34;23.97;;;9.33;;
20727;SDS011;10525;50.154;8.198;2022-11-20T05:07:01;19.87;;;8.87;;
20727;SDS011;10525;50.154;8.198;2022-11-20T05:09:27;24.17;;;8.77;;
20727;SDS011;10525;50.154;8.198;2022-11-20T05:11:54;26.93;;;9.73;;
20727;SDS011;10525;50.154;8.198;2022-11-20T05:14:22;23.53;;;9.17;;
20727;SDS011;10525;50.154;8.198;2022-11-20T05:16:49;26.75;;;8.68;;
20727;SDS011;10525;50.154;8.198;2022-11-20T05:19:15;27.37;;;9.97;;
20727;SDS011;10525;50.154;8.198;2022-11-20T05:21:42;24.20;;;9.40;;
20727;SDS011;10525;50.154;8.198;2022-11-20T05:24:09;33.93;;;11.90;;
20727;SDS011;10525;50.154;8.198;2022-11-20T05:26:35;26.33;;;8.97;;
20727;SDS011;10525;50.154;8.198;2022-11-20T05:29:02;36.00;;;8.30;;
20727;SDS011;10525;50.154;8.198;2022-11-20T05:31:30;21.60;;;7.67;;
20727;SDS011;10525;50.154;8.198;2022-11-20T05:33:57;27.63;;;8.67;;
20727;SDS011;10525;50.154;8.198;2022-11-20T05:36:24;27.93;;;8.90;;
20727;SDS011;10525;50.154;8.198;2022-11-20T05:38:51;17.97;;;8.03;;
20727;SDS011;10525;50.154;8.198;2022-11-20T05:41:18;22.43;;;9.03;;
20727;SDS011;10525;50.154;8.198;2022-11-20T05:43:47;31.73;;;9.23;;
20727;SDS011;10525;50.154;8.198;2022-11-20T05:46:14;35.93;;;8.77;;
20727;SDS011;10525;50.154;8.198;2022-11-20T05:48:44;30.27;;;9.90;;
20727;SDS011;10525;50.154;8.198;2022-11-20T05:51:12;27.97;;;9.73;;
20727;SDS011;10525;50.154;8.198;2022-11-20T05:53:41;25.87;;;9.20;;
20727;SDS011;10525;50.154;8.198;2022-11-20T05:56:09;32.30;;;10.00;;
20727;SDS011;10525;50.154;8.198;2022-11-20T05:58:37;39.97;;;10.70;;
20727;SDS011;10525;50.154;8.198;2022-11-20T06:01:05;35.30;;;10.40;;
20727;SDS011;10525;50.154;8.198;2022-11-20T06:03:32;34.77;;;10.10;;
20727;SDS011;10525;50.154;8.198;2022-11-20T06:06:01;29.07;;;9.90;;
20727;SDS011;10525;50.154;8.198;2022-11-20T06:08:28;38.67;;;10.10;;
20727;SDS011;10525;50.154;8.198;2022-11-20T06:10:55;30.85;;;10.35;;
20727;SDS011;10525;50.154;8.198;2022-11-20T06:13:22;36.23;;;10.50;;
20727;SDS011;10525;50.154;8.198;2022-11-20T06:15:49;31.93;;;10.33;;
20727;SDS011;10525;50.154;8.198;2022-11-20T06:18:15;30.83;;;9.90;;
20727;SDS011;10525;50.154;8.198;2022-11-20T06:20:42;33.13;;;9.87;;
20727;SDS011;10525;50.154;8.198;2022-11-20T06:23:10;26.57;;;9.20;;
20727;SDS011;10525;50.154;8.198;2022-11-20T06:25:38;31.50;;;9.73;;
20727;SDS011;10525;50.154;8.198;2022-11-20T06:28:05;23.67;;;9.27;;
20727;SDS011;10525;50.154;8.198;2022-11-20T06:30:31;22.88;;;8.02;;
20727;SDS011;10525;50.154;8.198;2022-11-20T06:32:58;25.23;;;8.77;;
20727;SDS011;10525;50.154;8.198;2022-11-20T06:35:25;22.20;;;8.13;;
20727;SDS011;10525;50.154;8.198;2022-11-20T06:37:51;18.50;;;8.10;;
20727;SDS011;10525;50.154;8.198;2022-11-20T06:40:19;24.33;;;9.27;;
20727;SDS011;10525;50.154;8.198;2022-11-20T06:42:46;25.50;;;9.63;;
20727;SDS011;10525;50.154;8.198;2022-11-20T06:45:13;26.17;;;8.77;;
20727;SDS011;10525;50.154;8.198;2022-11-20T06:47:40;21.80;;;8.43;;
20727;SDS011;10525;50.154;8.198;2022-11-20T06:50:06;19.83;;;8.63;;
20727;SDS011;10525;50.154;8.198;2022-11-20T06:52:34;21.83;;;8.60;;
20727;SDS011;10525;50.154;8.198;2022-11-20T06:55:00;22.87;;;9.57;;
20727;SDS011;10525;50.154;8.198;2022-11-20T06:57:28;18.20;;;8.67;;
20727;SDS011;10525;50.154;8.198;2022-11-20T06:59:55;22.00;;;9.03;;
20727;SDS011;10525;50.154;8.198;2022-11-20T07:02:22;22.87;;;8.13;;
20727;SDS011;10525;50.154;8.198;2022-11-20T07:04:48;22.80;;;8.60;;
20727;SDS011;10525;50.154;8.198;2022-11-20T07:07:15;18.00;;;7.90;;
20727;SDS011;10525;50.154;8.198;2022-11-20T07:09:42;22.47;;;9.13;;
20727;SDS011;10525;50.154;8.198;2022-11-20T07:12:08;25.13;;;8.70;;
20727;SDS011;10525;50.154;8.198;2022-11-20T07:14:36;19.23;;;7.17;;
20727;SDS011;10525;50.154;8.198;2022-11-20T07:17:03;17.17;;;7.90;;
20727;SDS011;10525;50.154;8.198;2022-11-20T07:19:29;20.83;;;7.83;;
20727;SDS011;10525;50.154;8.198;2022-11-20T07:21:56;18.73;;;7.93;;
20727;SDS011;10525;50.154;8.198;2022-11-20T07:24:23;21.37;;;8.03;;
20727;SDS011;10525;50.154;8.198;2022-11-20T07:26:49;13.73;;;7.10;;
20727;SDS011;10525;50.154;8.198;2022-11-20T07:29:16;18.55;;;8.38;;
20727;SDS011;10525;50.154;8.198;2022-11-20T07:31:44;16.40;;;7.55;;
20727;SDS011;10525;50.154;8.198;2022-11-20T07:34:11;14.97;;;7.77;;
20727;SDS011;10525;50.154;8.198;2022-11-20T07:36:38;15.00;;;6.70;;
20727;SDS011;10525;50.154;8.198;2022-11-20T07:39:05;17.17;;;7.97;;
20727;SDS011;10525;50.154;8.198;2022-11-20T07:41:32;17.87;;;8.20;;
20727;SDS011;10525;50.154;8.198;2022-11-20T07:43:59;17.30;;;8.03;;
20727;SDS011;10525;50.154;8.198;2022-11-20T07:46:25;16.23;;;7.83;;
20727;SDS011;10525;50.154;8.198;2022-11-20T07:48:53;16.40;;;8.07;;
20727;SDS011;10525;50.154;8.198;2022-11-20T07:51:20;20.33;;;8.43;;
20727;SDS011;10525;50.154;8.198;2022-11-20T07:53:47;16.40;;;7.83;;
20727;SDS011;10525;50.154;8.198;2022-11-20T07:56:16;21.80;;;8.70;;
20727;SDS011;10525;50.154;8.198;2022-11-20T07:58:43;19.57;;;8.50;;
20727;SDS011;10525;50.154;8.198;2022-11-20T08:01:09;22.80;;;8.90;;
20727;SDS011;10525;50.154;8.198;2022-11-20T08:03:36;14.82;;;7.43;;
20727;SDS011;10525;50.154;8.198;2022-11-20T08:06:05;15.63;;;7.43;;
20727;SDS011;10525;50.154;8.198;2022-11-20T08:08:32;17.05;;;7.65;;
20727;SDS011;10525;50.154;8.198;2022-11-20T08:10:59;25.13;;;8.90;;
20727;SDS011;10525;50.154;8.198;2022-11-20T08:13:39;18.17;;;7.68;;
20727;SDS011;10525;50.154;8.198;2022-11-20T08:16:23;18.48;;;7.72;;
20727;SDS011;10525;50.154;8.198;2022-11-20T08:18:50;21.20;;;8.60;;
20727;SDS011;10525;50.154;8.198;2022-11-20T08:21:18;20.80;;;8.83;;
20727;SDS011;10525;50.154;8.198;2022-11-20T08:23:45;26.23;;;8.73;;
20727;SDS011;10525;50.154;8.198;2022-11-20T08:26:11;14.13;;;7.35;;
20727;SDS011;10525;50.154;8.198;2022-11-20T08:28:38;20.90;;;8.35;;
20727;SDS011;10525;50.154;8.198;2022-11-20T08:31:05;23.77;;;8.68;;
20727;SDS011;10525;50.154;8.198;2022-11-20T08:33:31;23.38;;;8.60;;
20727;SDS011;10525;50.154;8.198;2022-11-20T08:35:59;21.23;;;8.13;;
20727;SDS011;10525;50.154;8.198;2022-11-20T08:38:27;25.55;;;10.32;;
20727;SDS011;10525;50.154;8.198;2022-11-20T08:40:55;16.67;;;8.02;;
20727;SDS011;10525;50.154;8.198;2022-11-20T08:43:40;23.30;;;9.38;;
20727;SDS011;10525;50.154;8.198;2022-11-20T08:46:07;23.33;;;9.20;;
20727;SDS011;10525;50.154;8.198;2022-11-20T08:48:33;20.67;;;8.70;;
20727;SDS011;10525;50.154;8.198;2022-11-20T08:51:00;20.83;;;8.10;;
20727;SDS011;10525;50.154;8.198;2022-11-20T08:53:28;21.40;;;8.65;;
20727;SDS011;10525;50.154;8.198;2022-11-20T08:55:56;20.42;;;8.23;;
20727;SDS011;10525;50.154;8.198;2022-11-20T08:58:23;18.67;;;8.02;;
20727;SDS011;10525;50.154;8.198;2022-11-20T09:00:49;13.80;;;7.28;;
20727;SDS011;10525;50.154;8.198;2022-11-20T09:03:16;11.70;;;6.50;;
20727;SDS011;10525;50.154;8.198;2022-11-20T09:05:43;10.82;;;6.30;;
20727;SDS011;10525;50.154;8.198;2022-11-20T09:08:10;9.27;;;5.95;;
20727;SDS011;10525;50.154;8.198;2022-11-20T09:10:38;11.95;;;6.07;;
20727;SDS011;10525;50.154;8.198;2022-11-20T09:13:05;10.98;;;5.82;;
20727;SDS011;10525;50.154;8.198;2022-11-20T09:15:32;12.40;;;6.50;;
20727;SDS011;10525;50.154;8.198;2022-11-20T09:17:59;9.88;;;5.53;;
20727;SDS011;10525;50.154;8.198;2022-11-20T09:20:28;11.43;;;7.20;;
20727;SDS011;10525;50.154;8.198;2022-11-20T09:22:56;11.45;;;6.00;;
20727;SDS011;10525;50.154;8.198;2022-11-20T09:25:22;15.35;;;7.38;;
20727;SDS011;10525;50.154;8.198;2022-11-20T09:27:55;12.73;;;6.78;;
20727;SDS011;10525;50.154;8.198;2022-11-20T09:30:22;6.85;;;5.57;;
20727;SDS011;10525;50.154;8.198;2022-11-20T09:32:49;8.93;;;5.72;;
20727;SDS011;10525;50.154;8.198;2022-11-20T09:35:16;10.25;;;5.93;;
20727;SDS011;10525;50.154;8.198;2022-11-20T09:37:43;7.22;;;5.43;;
20727;SDS011;10525;50.154;8.198;2022-11-20T09:40:13;10.73;;;5.72;;
20727;SDS011;10525;50.154;8.198;2022-11-20T09:42:47;9.98;;;5.75;;
20727;SDS011;10525;50.154;8.198;2022-11-20T09:45:28;12.23;;;5.88;;
20727;SDS011;10525;50.154;8.198;2022-11-20T09:48:07;8.10;;;5.05;;
20727;SDS011;10525;50.154;8.198;2022-11-20T09:50:52;7.95;;;4.90;;
20727;SDS011;10525;50.154;8.198;2022-11-20T09:53:24;8.35;;;4.97;;
20727;SDS011;10525;50.154;8.198;2022-11-20T09:55:57;9.32;;;5.75;;
20727;SDS011;10525;50.154;8.198;2022-11-20T09:58:28;10.73;;;5.82;;
20727;SDS011;10525;50.154;8.198;2022-11-20T10:01:03;10.20;;;6.30;;
20727;SDS011;10525;50.154;8.198;2022-11-20T10:03:37;10.57;;;6.03;;
20727;SDS011;10525;50.154;8.198;2022-11-20T10:06:10;10.25;;;5.43;;
20727;SDS011;10525;50.154;8.198;2022-11-20T10:08:41;7.38;;;5.45;;
20727;SDS011;10525;50.154;8.198;2022-11-20T10:11:13;11.68;;;7.10;;
20727;SDS011;10525;50.154;8.198;2022-11-20T10:13:49;8.95;;;5.68;;
20727;SDS011;10525;50.154;8.198;2022-11-20T10:16:26;22.52;;;9.95;;
20727;SDS011;10525;50.154;8.198;2022-11-20T10:19:06;28.55;;;13.25;;
20727;SDS011;10525;50.154;8.198;2022-11-20T10:21:48;98.03;;;29.77;;
20727;SDS011;10525;50.154;8.198;2022-11-20T10:24:28;65.32;;;21.05;;
20727;SDS011;10525;50.154;8.198;2022-11-20T10:27:06;82.18;;;23.75;;
20727;SDS011;10525;50.154;8.198;2022-11-20T10:29:45;65.38;;;22.48;;
20727;SDS011;10525;50.154;8.198;2022-11-20T10:32:23;22.13;;;9.20;;
20727;SDS011;10525;50.154;8.198;2022-11-20T10:34:58;13.15;;;8.20;;
20727;SDS011;10525;50.154;8.198;2022-11-20T10:37:27;42.25;;;19.38;;
20727;SDS011;10525;50.154;8.198;2022-11-20T10:39:58;44.53;;;21.35;;
20727;SDS011;10525;50.154;8.198;2022-11-20T10:42:34;46.00;;;22.98;;
20727;SDS011;10525;50.154;8.198;2022-11-20T10:45:09;28.90;;;13.70;;
20727;SDS011;10525;50.154;8.198;2022-11-20T10:47:46;11.55;;;7.95;;
20727;SDS011;10525;50.154;8.198;2022-11-20T10:50:14;11.43;;;7.65;;
20727;SDS011;10525;50.154;8.198;2022-11-20T10:52:46;15.90;;;7.85;;
20727;SDS011;10525;50.154;8.198;2022-11-20T10:55:25;15.13;;;7.15;;
20727;SDS011;10525;50.154;8.198;2022-11-20T10:57:58;14.40;;;8.30;;
20727;SDS011;10525;50.154;8.198;2022-11-20T11:00:32;16.77;;;8.05;;
20727;SDS011;10525;50.154;8.198;2022-11-20T11:03:00;11.60;;;6.72;;
20727;SDS011;10525;50.154;8.198;2022-11-20T11:05:32;13.75;;;6.30;;
20727;SDS011;10525;50.154;8.198;2022-11-20T11:08:03;10.50;;;6.10;;
20727;SDS011;10525;50.154;8.198;2022-11-20T11:10:36;10.98;;;6.13;;
20727;SDS011;10525;50.154;8.198;2022-11-20T11:13:18;8.68;;;5.93;;
20727;SDS011;10525;50.154;8.198;2022-11-20T11:15:46;7.15;;;5.50;;
20727;SDS011;10525;50.154;8.198;2022-11-20T11:18:22;8.60;;;5.88;;
20727;SDS011;10525;50.154;8.198;2022-11-20T11:20:50;14.18;;;6.22;;
20727;SDS011;10525;50.154;8.198;2022-11-20T11:23:22;11.85;;;6.82;;
20727;SDS011;10525;50.154;8.198;2022-11-20T11:25:57;14.10;;;6.45;;
20727;SDS011;10525;50.154;8.198;2022-11-20T11:28:25;13.68;;;6.80;;
20727;SDS011;10525;50.154;8.198;2022-11-20T11:30:53;11.90;;;7.35;;
20727;SDS011;10525;50.154;8.198;2022-11-20T11:33:22;10.15;;;6.40;;
20727;SDS011;10525;50.154;8.198;2022-11-20T11:35:51;14.55;;;6.53;;
20727;SDS011;10525;50.154;8.198;2022-11-20T11:38:22;11.15;;;7.20;;
20727;SDS011;10525;50.154;8.198;2022-11-20T11:40:54;10.70;;;6.38;;
20727;SDS011;10525;50.154;8.198;2022-11-20T11:43:23;9.23;;;6.32;;
20727;SDS011;10525;50.154;8.198;2022-11-20T11:46:20;9.57;;;6.38;;
20727;SDS011;10525;50.154;8.198;2022-11-20T11:48:59;11.57;;;7.00;;
20727;SDS011;10525;50.154;8.198;2022-11-20T11:51:28;11.48;;;6.45;;
20727;SDS011;10525;50.154;8.198;2022-11-20T11:54:00;9.65;;;5.90;;
20727;SDS011;10525;50.154;8.198;2022-11-20T11:56:30;9.18;;;5.55;;
20727;SDS011;10525;50.154;8.198;2022-11-20T11:59:00;9.68;;;6.13;;
20727;SDS011;10525;50.154;8.198;2022-11-20T12:01:33;10.52;;;5.82;;
20727;SDS011;10525;50.154;8.198;2022-11-20T12:04:09;12.63;;;6.53;;
20727;SDS011;10525;50.154;8.198;2022-11-20T12:06:42;11.02;;;6.90;;
20727;SDS011;10525;50.154;8.198;2022-11-20T12:09:13;10.77;;;6.20;;
20727;SDS011;10525;50.154;8.198;2022-11-20T12:11:43;14.38;;;8.82;;
20727;SDS011;10525;50.154;8.198;2022-11-20T12:14:14;15.30;;;7.50;;
20727;SDS011;10525;50.154;8.198;2022-11-20T12:16:44;11.55;;;6.78;;
20727;SDS011;10525;50.154;8.198;2022-11-20T12:19:14;9.55;;;6.90;;
20727;SDS011;10525;50.154;8.198;2022-11-20T12:21:44;9.02;;;6.57;;
20727;SDS011;10525;50.154;8.198;2022-11-20T12:24:28;11.95;;;6.68;;
20727;SDS011;10525;50.154;8.198;2022-11-20T12:30:10;10.23;;;6.30;;
20727;SDS011;10525;50.154;8.198;2022-11-20T12:32:51;8.88;;;6.32;;
20727;SDS011;10525;50.154;8.198;2022-11-20T12:35:44;12.60;;;7.40;;
20727;SDS011;10525;50.154;8.198;2022-11-20T12:41:58;11.98;;;7.25;;
20727;SDS011;10525;50.154;8.198;2022-11-20T12:45:00;13.30;;;7.20;;
20727;SDS011;10525;50.154;8.198;2022-11-20T12:47:39;13.68;;;7.25;;
20727;SDS011;10525;50.154;8.198;2022-11-20T12:50:28;16.17;;;8.13;;
20727;SDS011;10525;50.154;8.198;2022-11-20T12:53:05;18.58;;;8.63;;
20727;SDS011;10525;50.154;8.198;2022-11-20T12:55:41;19.63;;;8.27;;
20727;SDS011;10525;50.154;8.198;2022-11-20T12:58:16;15.05;;;8.70;;
20727;SDS011;10525;50.154;8.198;2022-11-20T13:00:51;13.23;;;7.43;;
20727;SDS011;10525;50.154;8.198;2022-11-20T13:03:30;16.58;;;8.52;;
20727;SDS011;10525;50.154;8.198;2022-11-20T13:06:11;15.57;;;7.65;;
20727;SDS011;10525;50.154;8.198;2022-11-20T13:08:43;14.68;;;8.13;;
20727;SDS011;10525;50.154;8.198;2022-11-20T13:11:17;12.38;;;7.45;;
20727;SDS011;10525;50.154;8.198;2022-11-20T13:16:46;16.88;;;7.50;;
20727;SDS011;10525;50.154;8.198;2022-11-20T13:19:17;19.02;;;7.03;;
20727;SDS011;10525;50.154;8.198;2022-11-20T13:21:45;16.77;;;7.63;;
20727;SDS011;10525;50.154;8.198;2022-11-20T13:24:22;13.65;;;6.97;;
20727;SDS011;10525;50.154;8.198;2022-11-20T13:27:01;11.60;;;6.68;;
20727;SDS011;10525;50.154;8.198;2022-11-20T13:29:44;10.25;;;6.55;;
20727;SDS011;10525;50.154;8.198;2022-11-20T13:32:14;15.82;;;6.85;;
20727;SDS011;10525;50.154;8.198;2022-11-20T13:34:51;16.95;;;7.13;;
20727;SDS011;10525;50.154;8.198;2022-11-20T13:37:24;11.77;;;6.43;;
20727;SDS011;10525;50.154;8.198;2022-11-20T13:40:05;15.60;;;7.25;;
20727;SDS011;10525;50.154;8.198;2022-11-20T13:42:40;8.73;;;6.05;;
20727;SDS011;10525;50.154;8.198;2022-11-20T13:45:11;13.27;;;7.20;;
20727;SDS011;10525;50.154;8.198;2022-11-20T13:47:48;11.82;;;7.15;;
20727;SDS011;10525;50.154;8.198;2022-11-20T13:50:16;12.68;;;6.78;;
20727;SDS011;10525;50.154;8.198;2022-11-20T13:52:45;15.70;;;6.68;;
20727;SDS011;10525;50.154;8.198;2022-11-20T13:55:21;13.65;;;7.25;;
20727;SDS011;10525;50.154;8.198;2022-11-20T13:58:01;15.43;;;7.25;;
20727;SDS011;10525;50.154;8.198;2022-11-20T14:00:43;9.90;;;6.07;;
20727;SDS011;10525;50.154;8.198;2022-11-20T14:03:14;16.58;;;7.25;;
20727;SDS011;10525;50.154;8.198;2022-11-20T14:05:46;13.40;;;7.05;;
20727;SDS011;10525;50.154;8.198;2022-11-20T14:08:20;14.30;;;6.18;;
20727;SDS011;10525;50.154;8.198;2022-11-20T14:11:01;15.93;;;6.93;;
20727;SDS011;10525;50.154;8.198;2022-11-20T14:13:29;15.40;;;7.28;;
20727;SDS011;10525;50.154;8.198;2022-11-20T14:15:56;16.60;;;6.85;;
20727;SDS011;10525;50.154;8.198;2022-11-20T14:18:24;12.32;;;7.18;;
20727;SDS011;10525;50.154;8.198;2022-11-20T14:20:52;18.40;;;7.93;;
20727;SDS011;10525;50.154;8.198;2022-11-20T14:23:23;12.68;;;6.80;;
20727;SDS011;10525;50.154;8.198;2022-11-20T14:25:52;15.25;;;7.40;;
20727;SDS011;10525;50.154;8.198;2022-11-20T14:28:21;15.65;;;7.63;;
20727;SDS011;10525;50.154;8.198;2022-11-20T14:30:52;14.40;;;6.60;;
20727;SDS011;10525;50.154;8.198;2022-11-20T14:33:20;14.95;;;6.68;;
20727;SDS011;10525;50.154;8.198;2022-11-20T14:35:50;11.73;;;6.22;;
20727;SDS011;10525;50.154;8.198;2022-11-20T14:38:18;17.25;;;7.93;;
20727;SDS011;10525;50.154;8.198;2022-11-20T14:40:48;10.18;;;6.68;;
20727;SDS011;10525;50.154;8.198;2022-11-20T14:43:20;13.73;;;6.18;;
20727;SDS011;10525;50.154;8.198;2022-11-20T14:45:52;13.50;;;7.85;;
20727;SDS011;10525;50.154;8.198;2022-11-20T14:48:23;12.32;;;5.93;;
20727;SDS011;10525;50.154;8.198;2022-11-20T14:50:54;11.15;;;5.95;;
20727;SDS011;10525;50.154;8.198;2022-11-20T14:53:22;11.90;;;6.53;;
20727;SDS011;10525;50.154;8.198;2022-11-20T14:55:54;9.07;;;5.25;;
20727;SDS011;10525;50.154;8.198;2022-11-20T14:58:25;13.48;;;7.25;;